Forum : CARMAT
Date Sujet Auteur Dernier
30/07/15 13:54 'jour tout le monde ;0))) TEI1990 TEI1990 9 5
30/07/15 13:51 Bonne journée à tous thau34 TEI1990 6 4
30/07/15 13:44 Très bonne vraie news Bingo007 A3622370 17 8
30/07/15 11:36 Publication The Lancet mcm06 M2220538 24 11
30/07/15 11:02 Cyberproptection Carmat Systole Systole 5 6
30/07/15 10:49 Du concret : article sur site Pourquoi Bingo007 indyta 8 8
29/07/15 21:25 CARMAT - Cardio 3 - CELLPROTHERA Crealand M3772703 2 1
29/07/15 20:34 article très intéressant ! !! patmo72 indyta 2 4
29/07/15 17:18 le coeur n est pas encore au point marvin69 64ouest 12 0
29/07/15 14:44 Intéressant mouvement d'actions Carmat Bingo007 Bingo007 12 9
28/07/15 11:02 Bonjour à toutes et tous :-)) Coxi76 A3622370 6 4
27/07/15 19:50 Un gros serait il en train d'entrer ? Bingo007 Bingo007 19 1
27/07/15 17:11 Retour sur le tarmac pour carmat coriolix coriolix 2 0
27/07/15 13:45 Le bonjour du lundi A3622370 Coxi76 8 5
27/07/15 10:07 Cessions Truffle du 16 juillet 2015 berni11 pvacher4 12 6
26/07/15 22:53 Poisson ce jour; thau34 thau34 2 5
26/07/15 20:09 le temps passe naf-naf M3772703 1 0
26/07/15 19:30 Proposition aux forumeurs M2774295 berni11 5 1
26/07/15 12:44 Bonjour et bon dimanche à tous :-))) mcm06 Coxi76 2 4
25/07/15 20:41 @ M27 Bingo007 Bingo007 2 1
25/07/15 20:29 Repostez, on censure ici! M2774295 M2774295 0 0
25/07/15 20:15 Plus petit c½ur artificiel du monde allonews Bingo007 2 0
25/07/15 17:25 attention patient 3 a la chiaste! GOLDMX jcg1037 4 1
25/07/15 12:31 A ce rythme on attaquera le marché naf-naf mcm06 1 0
25/07/15 12:29 Bonjour à toutes et tous :-)) Coxi76 mcm06 3 3
24/07/15 19:43 Bonjour les copains ;0))) TEI1990 Coxi76 11 5
24/07/15 19:37 Une pensée pour.... thau34 Coxi76 9 12
24/07/15 14:06 Large réussite de la phase 1 Bingo007 Bingo007 35 17
24/07/15 10:27 Bonjour à tous les carmatiens thau34 Coxi76 4 3
23/07/15 17:35 Un Tr. peut en cacher un autre :-))) thau34 ocbs 2 4
23/07/15 12:30 si investir dans les biotechs est passi M8831965 EGCD 4 8
23/07/15 09:18 les 500 je les vois après ouverture du naf-naf GOLDMX 1 0
23/07/15 08:34 A quand une RH? frede331 M3772703 3 0
22/07/15 23:22 Bonjour du Sud.... thau34 Mephi12 12 5
22/07/15 20:49 CARMAT - mon graphe a été effacé ! chtipio2 fableoso 31 2
22/07/15 17:37 verte 64ouest mcm06 2 1
22/07/15 12:42 réflexion faite, à 500 je n'en vends naf-naf 64ouest 8 0
21/07/15 21:19 Nouvelles du 3eme patient?? 88933 64ouest 5 0
21/07/15 18:43 Attention au soleil... thau34 153surs 1 5
21/07/15 10:39 Bonjour très chaud du 34 thau34 VRRV6 4 2

Les sujets :

Sujet sans réponse.
Sujet principal faisant l'objet d'au moins une réponse.
Sujet comportant une analyse technique commentée.

Les autres icônes :

BoursoStar Expert
BoursoStar 3 étoiles
BoursoStar 2 étoiles
BoursoStar 1 étoiles
BoursoStar